Signal Mountain, TN (37377)

10:29 PM EDT on April 26, 2015 (GMT -0400)
Shackleford Ridge | | Change Station
CLOSE
Current Station
Personal Weather Station
Location: Signal Mountain, TN
Elevation: 2010 ft
Nearby Weather Stations

Elev 2010 ft 35.17 °N, 85.34 °W | Updated 3 seconds ago

Overcast
Overcast
47.1 °F
Feels Like 47 °F
N
1.3
Wind Variable Wind from WNW
Gusts 1.3 mph

Today
High -- | Low -- °F
--% Chance of Precip.
Yesterday
High -- | Low -- °F
Precip. -- in
6:56 AM 8:22 PM
First Quarter, 60% visible
Pressure 29.85 in
Visibility 10.0 miles
Clouds Few 2200 ft
Scattered Clouds 3000 ft
Mostly Cloudy 25000 ft
Windchill 47 °F
Dew Point 44 °F
Humidity 88%
Rainfall 0.21 in
Snow Depth Not available.
UV 0 out of 12
Pollen 7.90 out of 12
Air Quality Not available.
Flu Activity Sporadic
METAR KCHA 270153Z 32005KT 10SM FEW022 SCT030 BKN250 12/08 A2985

More Conditions Fewer Conditions

Pressure 29.85 in
Visibility 10.0 miles
Clouds Few 2200 ft
Scattered Clouds 3000 ft
Mostly Cloudy 25000 ft
Windchill 47 °F
Dew Point 44 °F
Humidity 88%
Rainfall 0.21 in
Snow Depth Not available.
UV 0 out of 12
Pollen 7.90 out of 12
Air Quality Not available.
Flu Activity Sporadic
METAR KCHA 270153Z 32005KT 10SM FEW022 SCT030 BKN250 12/08 A2985

More Conditions Fewer Conditions

The full scope of the disaster following a powerful 7.8-magnitude earthquake in Nepal may not come into view for days, but global charities are already sending emergency aid. Click to see how you can help.

10-Day Weather Forecast

Almanac

Astronomy

Apr. 26, 2015 Rise Set
Actual Time
Civil Twilight
Nautical Twilight
Astronomical Twilight
Moon
Length of Visible Light
Length of Day
Tomorrow will be .
, % of the Moon is Illuminated

Today's Extremes

State Highs State Lows

Community

WunderPhotos

Upload Photos

1,817,204 photos uploaded!

WunderBlogs® & News

Nearby

Air Quality

  Air Quality AQ Index Pollutant
Not available.

Snow Depth

Station Depth Elevation

Earthquake Activity

City Distance Mag. Time & Date
Minimum magnitude displayed is 2.5.

Coastal Water Temperatures

Place Temperature

Stations

Nearby Weather Stations

Station Location Temp. Windchill Dew Point Humidity Wind Precip. Elev Updated Type